Terminal Aerodrome Forecast
Issued by NWS

Home | Current Version | Previous Version | Text Only | Print | Product List | Glossary On
Versions: 1 2 3 4 5 6 7 8 9 10 11 12 13 14 15
000
FTUS46 KMTR 230500
TAFOAK
TAF
KOAK 230534Z 2306/2412 28004KT P6SM SKC
     FM231300 27008KT P6SM OVC010
     FM231800 26005KT P6SM FEW015
     FM232200 28014KT P6SM FEW010
     FM240300 28009KT P6SM BKN200
     FM240600 27008KT P6SM OVC015=

USA.gov is the U.S. government's official web portal to all federal, state and local government web resources and services.